Time;durP1;ratioP1;P1;durP2;ratioP2;P2;SDS_P1;SDS_P2;PMS_P1;PMS_P2;Temp;Humidity;BMP_temperature;BMP_pressure;BME280_temperature;BME280_humidity;BME280_pressure;Samples;Min_cycle;Max_cycle;Signal;HPM_P1;HPM_P2
2021/01/23 00:02:07;;;;;;;64.57;37.33;;;6.20;99.90;;;;;;6075988;23;20002;-81
2021/01/23 00:04:33;;;;;;;58.10;34.58;;;5.90;99.90;;;;;;6096849;23;20002;-85
2021/01/23 00:06:59;;;;;;;55.50;34.40;;;5.80;99.90;;;;;;6095854;23;20003;-82
2021/01/23 00:09:24;;;;;;;56.72;34.72;;;5.90;99.90;;;;;;6071191;23;20018;-81
2021/01/23 00:11:50;;;;;;;57.53;36.40;;;5.90;99.90;;;;;;6071312;23;20002;-82
2021/01/23 00:14:16;;;;;;;57.45;35.10;;;5.80;99.90;;;;;;6096983;23;20034;-82
2021/01/23 00:16:42;;;;;;;54.88;36.22;;;5.90;99.90;;;;;;6094792;23;20520;-80
2021/01/23 00:19:08;;;;;;;59.10;35.35;;;5.90;99.90;;;;;;6097488;23;20002;-84
2021/01/23 00:21:36;;;;;;;60.05;33.38;;;5.90;99.90;;;;;;6096635;23;20041;-85
2021/01/23 00:24:03;;;;;;;57.97;34.20;;;5.90;99.90;;;;;;6096246;23;20077;-79
2021/01/23 00:26:28;;;;;;;54.17;32.60;;;5.90;99.90;;;;;;6069590;23;20441;-84
2021/01/23 00:28:54;;;;;;;54.50;33.08;;;6.10;99.90;;;;;;6092592;23;20014;-82
2021/01/23 00:31:20;;;;;;;80.85;46.88;;;6.30;99.90;;;;;;6097492;23;20076;-85
2021/01/23 00:33:46;;;;;;;68.20;41.90;;;6.40;99.90;;;;;;6096569;23;20077;-87
2021/01/23 00:36:11;;;;;;;72.10;40.40;;;6.00;99.90;;;;;;6096045;23;20030;-88
2021/01/23 00:38:39;;;;;;;68.30;40.22;;;6.10;99.90;;;;;;6070840;23;20066;-86
2021/01/23 00:41:05;;;;;;;110.35;59.67;;;6.00;99.90;;;;;;6069649;23;20010;-83
2021/01/23 00:46:32;;;;;;;62.10;36.03;;;6.40;99.90;;;;;;6097178;23;20102;-85
2021/01/23 00:49:13;;;;;;;60.65;35.67;;;6.00;99.90;;;;;;6097683;23;20417;-86
2021/01/23 00:51:38;;;;;;;61.95;36.65;;;6.20;99.90;;;;;;6094868;23;20328;-85
2021/01/23 00:54:07;;;;;;;61.15;36.88;;;6.20;99.90;;;;;;6071007;23;20699;-84
2021/01/23 00:56:33;;;;;;;64.30;37.70;;;6.20;99.90;;;;;;6097652;23;20050;-84
2021/01/23 00:58:59;;;;;;;58.88;38.13;;;6.00;99.90;;;;;;6097681;23;19990;-79
2021/01/23 01:01:24;;;;;;;62.67;37.22;;;6.20;99.90;;;;;;6099940;23;20006;-88
2021/01/23 01:03:50;;;;;;;62.58;37.67;;;6.30;99.90;;;;;;6074001;23;20476;-89
2021/01/23 01:06:16;;;;;;;64.88;37.95;;;6.40;99.90;;;;;;6074195;23;20425;-85
2021/01/23 01:08:44;;;;;;;62.65;36.63;;;6.50;99.90;;;;;;6073227;23;20058;-89
2021/01/23 01:11:10;;;;;;;64.18;38.50;;;6.50;99.90;;;;;;6098894;23;20088;-87
2021/01/23 01:13:36;;;;;;;63.63;37.92;;;6.20;99.90;;;;;;6097261;23;19995;-85
2021/01/23 01:16:02;;;;;;;63.70;36.60;;;6.40;99.90;;;;;;6097762;23;20010;-82
2021/01/23 01:18:28;;;;;;;61.50;37.42;;;6.40;99.90;;;;;;6073844;23;19999;-80
2021/01/23 01:20:53;;;;;;;59.40;35.95;;;6.50;99.90;;;;;;6098568;23;19995;-88
2021/01/23 01:23:19;;;;;;;62.20;36.75;;;6.60;99.90;;;;;;6072703;23;20089;-91
2021/01/23 01:25:45;;;;;;;55.30;37.20;;;6.50;99.90;;;;;;6096321;23;19995;-86
2021/01/23 01:28:11;;;;;;;61.17;36.85;;;6.20;99.90;;;;;;6071874;23;19999;-84
2021/01/23 01:30:36;;;;;;;66.38;38.38;;;6.30;99.90;;;;;;6071834;23;20022;-80
2021/01/23 01:33:03;;;;;;;56.30;36.22;;;6.40;99.90;;;;;;6097389;23;19998;-82
2021/01/23 01:35:29;;;;;;;60.65;36.13;;;6.40;99.90;;;;;;6097170;23;20077;-80
2021/01/23 01:37:54;;;;;;;57.40;34.38;;;6.20;99.90;;;;;;6097662;23;19994;-81
2021/01/23 01:40:20;;;;;;;58.35;34.03;;;6.20;99.90;;;;;;6097877;23;20065;-88
2021/01/23 01:42:46;;;;;;;59.38;35.25;;;6.20;99.90;;;;;;6073654;23;20030;-84
2021/01/23 01:45:13;;;;;;;58.67;34.28;;;6.20;99.90;;;;;;6097703;23;20012;-84
2021/01/23 01:47:40;;;;;;;50.92;33.25;;;6.20;99.90;;;;;;6074594;23;20006;-87
2021/01/23 01:50:06;;;;;;;56.42;34.65;;;5.90;99.90;;;;;;6073421;23;20336;-87
2021/01/23 01:52:32;;;;;;;60.45;36.22;;;6.00;99.90;;;;;;6100473;23;19991;-90
2021/01/23 01:54:59;;;;;;;55.28;34.67;;;6.00;99.90;;;;;;6099165;23;19998;-89
2021/01/23 01:57:25;;;;;;;54.78;36.60;;;5.80;99.90;;;;;;6074976;23;20429;-83
2021/01/23 01:59:51;;;;;;;56.55;34.05;;;5.70;99.90;;;;;;6098564;23;20014;-89
2021/01/23 02:02:37;;;;;;;55.97;34.53;;;5.90;99.90;;;;;;6100140;23;20390;-87
2021/01/23 02:05:07;;;;;;;54.25;34.00;;;6.10;99.90;;;;;;6074591;23;20002;-84
2021/01/23 02:07:46;;;;;;;53.40;33.38;;;5.60;99.90;;;;;;6076487;23;20077;-90
2021/01/23 02:10:24;;;;;;;58.30;33.03;;;5.40;99.90;;;;;;6073445;23;20010;-88
2021/01/23 02:13:07;;;;;;;52.83;31.90;;;5.70;99.90;;;;;;6099559;23;20077;-86
2021/01/23 02:15:43;;;;;;;53.88;32.78;;;6.00;99.90;;;;;;6074149;23;20022;-88
2021/01/23 02:18:12;;;;;;;54.80;33.08;;;6.00;99.90;;;;;;6099440;23;19999;-89
2021/01/23 02:21:05;;;;;;;55.65;31.50;;;6.10;99.90;;;;;;6099663;23;20360;-86
2021/01/23 02:23:33;;;;;;;50.80;31.17;;;6.10;99.90;;;;;;6075735;23;20325;-91
2021/01/23 02:26:11;;;;;;;50.65;31.15;;;5.40;99.90;;;;;;6074502;23;20316;-86
2021/01/23 02:28:40;;;;;;;50.45;31.35;;;5.60;99.90;;;;;;6099650;23;20081;-81
2021/01/23 02:31:09;;;;;;;47.65;29.60;;;5.90;99.90;;;;;;6098855;23;20030;-89
2021/01/23 02:33:37;;;;;;;44.47;28.38;;;5.80;99.90;;;;;;6099935;23;20008;-87
2021/01/23 02:36:06;;;;;;;48.75;27.50;;;5.60;99.90;;;;;;6098003;23;20034;-86
2021/01/23 02:38:36;;;;;;;49.95;29.20;;;5.80;99.90;;;;;;6074232;23;20003;-90
2021/01/23 02:41:02;;;;;;;47.13;29.42;;;5.50;99.90;;;;;;6098899;23;20069;-88
2021/01/23 02:43:30;;;;;;;44.13;28.30;;;5.40;99.90;;;;;;6098604;23;20030;-88
2021/01/23 02:45:55;;;;;;;46.63;28.98;;;5.60;99.90;;;;;;6098587;23;20022;-79
2021/01/23 02:48:22;;;;;;;43.80;28.17;;;5.50;99.90;;;;;;6099770;23;19998;-87
2021/01/23 02:50:47;;;;;;;46.45;28.27;;;5.70;99.90;;;;;;6098212;23;20017;-80
2021/01/23 02:53:20;;;;;;;42.22;28.20;;;6.00;99.90;;;;;;6101170;23;20042;-88
2021/01/23 02:55:51;;;;;;;50.63;30.00;;;5.60;99.90;;;;;;6099223;23;20041;-85
2021/01/23 02:58:20;;;;;;;45.45;27.35;;;5.80;99.90;;;;;;6099414;23;20003;-81
2021/01/23 03:01:00;;;;;;;45.15;26.40;;;5.90;99.90;;;;;;6072512;23;20007;-87
2021/01/23 03:03:30;;;;;;;42.17;27.63;;;5.90;99.90;;;;;;6098857;23;20034;-84
2021/01/23 03:05:59;;;;;;;43.17;26.87;;;6.10;99.90;;;;;;6099579;23;19999;-85
2021/01/23 03:08:24;;;;;;;41.22;25.70;;;5.80;99.90;;;;;;6099726;23;20251;-83
2021/01/23 03:10:50;;;;;;;45.08;28.00;;;6.00;99.90;;;;;;6099855;23;20007;-84
2021/01/23 03:13:17;;;;;;;49.78;28.75;;;5.90;99.90;;;;;;6100244;23;20486;-87
2021/01/23 03:15:43;;;;;;;46.78;27.23;;;5.60;99.90;;;;;;6099456;23;20006;-89
2021/01/23 03:18:09;;;;;;;44.65;26.73;;;5.80;99.90;;;;;;6100694;23;19999;-91
2021/01/23 03:20:35;;;;;;;43.08;27.48;;;5.90;99.90;;;;;;6101281;23;19999;-85
2021/01/23 03:23:02;;;;;;;43.65;26.38;;;6.00;99.90;;;;;;6100428;23;19999;-84
2021/01/23 03:25:29;;;;;;;46.00;27.08;;;6.20;99.90;;;;;;6073224;23;19998;-79
2021/01/23 03:27:55;;;;;;;47.58;28.17;;;6.30;99.90;;;;;;6074339;23;20005;-80
2021/01/23 03:30:22;;;;;;;47.92;30.52;;;6.10;99.90;;;;;;6073914;23;20026;-85
2021/01/23 03:32:49;;;;;;;45.58;28.50;;;5.90;99.90;;;;;;6099329;23;19999;-87
2021/01/23 03:35:16;;;;;;;37.72;24.52;;;6.20;99.90;;;;;;6072873;23;20009;-83
2021/01/23 03:37:42;;;;;;;46.50;26.05;;;6.30;99.90;;;;;;6073700;23;20069;-87
2021/01/23 03:40:09;;;;;;;38.58;25.05;;;6.40;99.90;;;;;;6074529;23;20002;-91
2021/01/23 03:42:36;;;;;;;44.00;27.42;;;6.40;99.90;;;;;;6099023;23;19998;-88
2021/01/23 03:45:03;;;;;;;46.58;27.85;;;6.10;99.90;;;;;;6098885;23;20432;-86
2021/01/23 03:47:29;;;;;;;46.20;27.83;;;5.90;99.90;;;;;;6098704;23;20005;-89
2021/01/23 03:49:55;;;;;;;46.53;29.20;;;6.00;99.90;;;;;;6098201;23;20007;-83
2021/01/23 03:52:21;;;;;;;46.08;29.05;;;6.00;99.90;;;;;;6098014;23;20368;-85
2021/01/23 03:54:46;;;;;;;45.88;27.27;;;5.80;99.90;;;;;;6098429;23;20432;-81
2021/01/23 03:57:12;;;;;;;46.15;28.35;;;5.90;99.90;;;;;;6073125;23;19995;-82
2021/01/23 03:59:39;;;;;;;44.50;28.13;;;6.10;99.90;;;;;;6098742;23;20013;-79
2021/01/23 04:02:05;;;;;;;46.83;28.42;;;6.30;99.90;;;;;;6098603;23;20021;-85
2021/01/23 04:04:31;;;;;;;50.60;28.58;;;6.10;99.90;;;;;;6100603;23;20039;-88
2021/01/23 04:06:57;;;;;;;42.60;28.27;;;6.10;99.90;;;;;;6099458;23;20319;-89
2021/01/23 04:09:24;;;;;;;49.42;28.05;;;6.30;99.90;;;;;;6099505;23;19998;-85
2021/01/23 04:12:05;;;;;;;47.40;27.52;;;6.30;99.90;;;;;;6072862;23;20010;-86
2021/01/23 04:14:31;;;;;;;40.97;26.30;;;6.50;99.90;;;;;;6098902;23;20007;-89
2021/01/23 04:16:57;;;;;;;49.20;28.55;;;6.50;99.90;;;;;;6097914;23;20006;-85
2021/01/23 04:19:23;;;;;;;40.17;25.42;;;6.10;99.90;;;;;;6072598;23;20002;-86
2021/01/23 04:21:48;;;;;;;37.20;24.85;;;6.40;99.90;;;;;;6097285;23;19998;-84
2021/01/23 04:24:14;;;;;;;44.17;25.73;;;6.50;99.90;;;;;;6098373;23;19995;-83
2021/01/23 04:26:40;;;;;;;47.35;26.70;;;6.50;99.90;;;;;;6098248;23;20297;-89
2021/01/23 04:29:07;;;;;;;45.40;26.90;;;6.40;99.90;;;;;;6098989;23;19995;-90
2021/01/23 04:31:34;;;;;;;47.67;28.65;;;6.10;99.90;;;;;;6073571;23;20081;-80
2021/01/23 04:34:00;;;;;;;39.53;25.40;;;5.70;99.90;;;;;;6098998;23;20021;-83
2021/01/23 04:36:27;;;;;;;37.80;23.42;;;5.90;99.90;;;;;;6098170;23;20002;-84
2021/01/23 04:38:52;;;;;;;51.15;29.75;;;6.20;99.90;;;;;;6100527;23;20004;-92
2021/01/23 04:41:18;;;;;;;43.28;25.70;;;5.70;99.90;;;;;;6075318;23;20022;-92
2021/01/23 04:43:45;;;;;;;41.40;26.13;;;5.70;99.90;;;;;;6099809;23;19995;-91
2021/01/23 04:46:12;;;;;;;40.75;26.58;;;6.00;99.90;;;;;;6100742;23;20476;-90
2021/01/23 04:48:40;;;;;;;40.88;24.98;;;5.70;99.90;;;;;;6099062;23;20006;-88
2021/01/23 04:51:06;;;;;;;41.28;26.15;;;5.70;99.90;;;;;;6073834;23;20298;-81
2021/01/23 04:53:33;;;;;;;44.33;26.13;;;5.90;99.90;;;;;;6072856;23;20451;-88
2021/01/23 04:56:00;;;;;;;43.15;25.77;;;6.10;99.90;;;;;;6098478;23;20002;-89
2021/01/23 04:58:26;;;;;;;42.88;25.33;;;5.90;99.90;;;;;;6097961;23;20342;-87
2021/01/23 05:00:52;;;;;;;42.33;27.55;;;5.80;99.90;;;;;;6098636;23;20473;-90
2021/01/23 05:03:17;;;;;;;47.92;27.20;;;5.50;99.90;;;;;;6073983;23;20003;-90
2021/01/23 05:06:06;;;;;;;45.55;27.02;;;5.20;99.90;;;;;;6101869;23;20432;-92
2021/01/23 05:08:39;;;;;;;44.35;27.50;;;5.20;99.90;;;;;;6074336;23;20006;-87
2021/01/23 05:11:06;;;;;;;45.13;27.38;;;5.50;99.90;;;;;;6073610;23;20007;-81
2021/01/23 05:13:32;;;;;;;44.13;25.95;;;5.40;99.90;;;;;;6098081;23;19995;-82
2021/01/23 05:15:58;;;;;;;45.53;26.73;;;5.30;99.90;;;;;;6098759;23;20006;-87
2021/01/23 05:18:24;;;;;;;43.13;26.83;;;5.60;99.90;;;;;;6097066;23;20006;-85
2021/01/23 05:20:53;;;;;;;40.75;26.15;;;5.70;99.90;;;;;;6098172;23;19998;-92
2021/01/23 05:23:27;;;;;;;46.30;27.08;;;5.70;99.90;;;;;;6074032;23;20057;-83
2021/01/23 05:26:00;;;;;;;42.08;25.55;;;5.50;99.90;;;;;;6100714;23;20054;-80
2021/01/23 05:28:28;;;;;;;44.03;26.70;;;5.70;99.90;;;;;;6099219;23;20002;-83
2021/01/23 05:30:55;;;;;;;42.03;26.42;;;5.80;99.90;;;;;;6100617;23;20081;-91
2021/01/23 05:33:25;;;;;;;40.30;24.63;;;5.90;99.90;;;;;;6073716;23;20002;-89
2021/01/23 05:36:05;;;;;;;38.42;24.58;;;5.90;99.90;;;;;;6099449;23;19998;-82
2021/01/23 05:38:33;;;;;;;38.00;24.05;;;5.80;99.90;;;;;;6099866;23;19990;-86
2021/01/23 05:41:08;;;;;;;36.50;22.48;;;6.00;99.90;;;;;;6074795;23;20086;-89
2021/01/23 05:43:39;;;;;;;34.15;21.40;;;6.00;99.90;;;;;;6100255;23;20029;-89
2021/01/23 05:46:05;;;;;;;;;;;6.20;99.90;;;;;;6074820;23;20019;-88
2021/01/23 05:48:35;;;;;;;34.58;22.02;;;6.20;99.90;;;;;;6073926;23;20252;-87
2021/01/23 05:51:02;;;;;;;40.03;23.73;;;6.20;99.90;;;;;;6099386;23;20006;-83
2021/01/23 05:53:29;;;;;;;38.55;23.58;;;6.20;99.90;;;;;;6099929;23;20225;-84
2021/01/23 05:55:56;;;;;;;37.50;24.52;;;5.80;99.90;;;;;;6074554;23;20428;-84
2021/01/23 05:58:22;;;;;;;39.88;24.15;;;5.40;99.90;;;;;;6074461;23;20313;-92
2021/01/23 06:00:49;;;;;;;40.13;25.63;;;5.30;99.90;;;;;;6101053;23;20014;-90
2021/01/23 06:03:15;;;;;;;40.85;25.23;;;5.50;99.90;;;;;;6100240;23;20427;-88
2021/01/23 06:05:41;;;;;;;38.95;24.30;;;5.60;99.90;;;;;;6101426;23;20025;-88
2021/01/23 06:08:07;;;;;;;42.83;25.17;;;5.50;99.90;;;;;;6101435;23;20002;-93
2021/01/23 06:10:35;;;;;;;40.78;25.30;;;5.50;99.90;;;;;;6101510;23;20320;-89
2021/01/23 06:13:01;;;;;;;41.65;24.75;;;5.70;99.90;;;;;;6075785;23;20061;-85
2021/01/23 06:15:35;;;;;;;41.65;24.38;;;5.90;99.90;;;;;;6102959;23;20013;-87
2021/01/23 06:18:03;;;;;;;38.20;25.45;;;5.70;99.90;;;;;;6103983;23;20005;-84
2021/01/23 06:20:41;;;;;;;39.97;24.48;;;5.40;99.90;;;;;;6075958;23;20005;-82
2021/01/23 06:23:07;;;;;;;40.60;24.17;;;5.40;99.90;;;;;;6100406;23;20003;-83
2021/01/23 06:25:51;;;;;;;39.78;25.92;;;5.40;99.90;;;;;;6075120;23;20009;-90
2021/01/23 06:28:30;;;;;;;41.25;24.70;;;5.50;99.90;;;;;;6100630;23;20077;-92
2021/01/23 06:30:55;;;;;;;43.53;24.92;;;5.90;99.90;;;;;;6101192;23;20324;-92
2021/01/23 06:33:24;;;;;;;40.80;25.95;;;6.00;99.90;;;;;;6100326;23;20425;-88
2021/01/23 06:36:05;;;;;;;41.58;25.17;;;5.80;99.90;;;;;;6100618;23;20313;-79
2021/01/23 06:38:32;;;;;;;42.28;24.17;;;5.90;99.90;;;;;;6101136;23;20047;-83
2021/01/23 06:41:26;;;;;;;35.45;24.80;;;5.90;99.90;;;;;;6099786;23;20056;-91
2021/01/23 06:44:19;;;;;;;38.55;24.90;;;6.10;99.90;;;;;;6100665;23;20005;-83
2021/01/23 06:46:51;;;;;;;39.65;24.63;;;5.80;99.90;;;;;;6070782;23;20325;-83
2021/01/23 06:49:17;;;;;;;35.80;23.13;;;5.70;99.90;;;;;;6099763;23;20006;-86
2021/01/23 06:51:44;;;;;;;33.78;23.83;;;6.00;99.90;;;;;;6073994;23;20077;-86
2021/01/23 06:54:21;;;;;;;36.25;23.48;;;6.10;99.90;;;;;;6073511;23;20046;-80
2021/01/23 06:56:52;;;;;;;41.47;25.80;;;6.40;99.90;;;;;;6100645;23;20002;-86
2021/01/23 06:59:33;;;;;;;39.75;25.70;;;6.10;99.90;;;;;;6101041;23;20009;-81
2021/01/23 07:02:00;;;;;;;42.67;27.10;;;5.60;99.90;;;;;;6076288;23;20316;-83
2021/01/23 07:04:31;;;;;;;41.53;27.38;;;5.50;99.90;;;;;;6100939;23;20430;-81
2021/01/23 07:06:58;;;;;;;43.38;27.65;;;5.60;99.90;;;;;;6102405;23;20002;-87
2021/01/23 07:09:46;;;;;;;45.55;28.88;;;5.70;99.90;;;;;;6101604;23;20001;-90
2021/01/23 07:12:32;;;;;;;43.03;26.58;;;5.80;99.90;;;;;;6099543;23;19998;-87
2021/01/23 07:14:58;;;;;;;42.00;25.88;;;6.10;99.90;;;;;;6073004;23;20009;-83
2021/01/23 07:17:24;;;;;;;45.65;26.40;;;6.40;99.90;;;;;;6098744;23;20038;-86
2021/01/23 07:19:49;;;;;;;38.72;25.60;;;6.50;99.90;;;;;;6099204;23;20025;-84
2021/01/23 07:22:15;;;;;;;43.38;25.95;;;6.70;99.90;;;;;;6100618;23;20002;-86
2021/01/23 07:24:41;;;;;;;43.25;26.52;;;6.80;99.90;;;;;;6100582;23;20001;-87
2021/01/23 07:27:07;;;;;;;44.22;26.60;;;7.00;99.90;;;;;;6101486;23;20012;-88
2021/01/23 07:29:33;;;;;;;42.95;27.08;;;7.10;99.90;;;;;;6100178;23;20015;-85
2021/01/23 07:31:58;;;;;;;47.60;27.50;;;7.00;99.90;;;;;;6074110;23;20328;-83
2021/01/23 07:34:25;;;;;;;51.35;28.80;;;6.90;99.90;;;;;;6074432;23;19999;-83
2021/01/23 07:36:51;;;;;;;41.40;25.83;;;7.10;99.90;;;;;;6074877;23;20003;-83
2021/01/23 07:39:20;;;;;;;35.25;23.13;;;7.30;99.90;;;;;;6100007;23;20041;-84
2021/01/23 07:41:54;;;;;;;41.58;27.00;;;7.50;99.90;;;;;;6100578;23;20128;-86
2021/01/23 07:44:24;;;;;;;48.53;30.10;;;7.20;99.90;;;;;;6074513;23;20010;-81
2021/01/23 07:46:50;;;;;;;53.08;32.20;;;7.00;99.90;;;;;;6100934;23;20006;-86
2021/01/23 07:49:24;;;;;;;52.70;31.35;;;6.90;99.90;;;;;;6100395;23;20026;-90
2021/01/23 07:52:10;;;;;;;47.13;27.60;;;7.00;99.90;;;;;;6100974;23;20008;-80
2021/01/23 07:54:52;;;;;;;46.53;29.90;;;7.10;99.90;;;;;;6073669;23;20409;-89
2021/01/23 07:57:18;;;;;;;49.20;29.90;;;7.30;99.90;;;;;;6098777;23;20678;-87
2021/01/23 07:59:48;;;;;;;47.00;30.52;;;7.40;99.90;;;;;;6098501;23;20002;-87
2021/01/23 08:02:17;;;;;;;49.35;30.65;;;7.80;99.90;;;;;;6098842;23;20078;-84
2021/01/23 08:04:51;;;;;;;48.00;29.83;;;7.80;99.90;;;;;;6097303;23;20037;-87
2021/01/23 08:07:29;;;;;;;46.13;28.85;;;7.50;99.90;;;;;;6097349;23;19995;-84
2021/01/23 08:10:16;;;;;;;47.63;28.60;;;7.30;99.90;;;;;;6097626;23;20017;-86
2021/01/23 08:13:03;;;;;;;50.78;28.73;;;7.30;99.90;;;;;;6071673;23;20497;-82
2021/01/23 08:15:30;;;;;;;49.35;29.38;;;7.20;99.90;;;;;;6069676;23;20007;-81
2021/01/23 08:17:57;;;;;;;43.70;26.05;;;7.30;99.90;;;;;;6097719;23;20002;-80
2021/01/23 08:20:35;;;;;;;34.95;22.80;;;7.30;99.90;;;;;;6097264;23;20002;-84
2021/01/23 08:23:13;;;;;;;39.33;24.58;;;7.30;99.90;;;;;;6098396;23;19999;-83
2021/01/23 08:25:49;;;;;;;41.15;24.90;;;7.50;99.90;;;;;;6098036;23;20373;-82
2021/01/23 08:28:27;;;;;;;40.50;25.30;;;7.60;99.90;;;;;;6096790;23;20002;-83
2021/01/23 08:30:53;;;;;;;36.03;22.95;;;7.50;99.90;;;;;;6071669;23;20018;-90
2021/01/23 08:33:21;;;;;;;37.47;22.80;;;7.70;99.90;;;;;;6098170;23;20073;-86
2021/01/23 08:35:47;;;;;;;37.08;24.27;;;7.70;99.90;;;;;;6072455;23;20006;-82
2021/01/23 08:38:12;;;;;;;37.67;23.55;;;7.80;99.90;;;;;;6096629;23;20009;-85
2021/01/23 08:40:38;;;;;;;34.40;22.40;;;7.80;99.90;;;;;;6096541;23;20008;-84
2021/01/23 08:43:05;;;;;;;36.60;20.83;;;7.80;99.90;;;;;;6072055;23;20003;-87
2021/01/23 08:45:31;;;;;;;37.55;21.95;;;8.00;99.90;;;;;;6096874;23;20049;-81
2021/01/23 08:47:57;;;;;;;37.20;22.90;;;8.10;99.90;;;;;;6071414;23;20062;-81
2021/01/23 08:50:23;;;;;;;37.65;23.75;;;8.10;99.90;;;;;;6096252;23;20040;-85
2021/01/23 08:52:49;;;;;;;47.95;30.02;;;7.90;99.90;;;;;;6097698;23;20308;-91
2021/01/23 08:55:15;;;;;;;41.72;27.55;;;8.20;99.90;;;;;;6097363;23;20062;-78
2021/01/23 08:57:41;;;;;;;58.22;33.90;;;8.30;99.90;;;;;;6097859;23;20069;-83
2021/01/23 09:00:10;;;;;;;39.83;26.48;;;8.30;99.90;;;;;;6098546;23;20071;-90
2021/01/23 09:02:35;;;;;;;40.97;24.50;;;8.20;99.90;;;;;;6088986;23;20045;-79
2021/01/23 09:05:01;;;;;;;35.03;23.70;;;8.10;99.90;;;;;;6087874;23;20431;-85
2021/01/23 09:07:27;;;;;;;54.00;30.48;;;8.00;99.90;;;;;;6070010;23;20085;-85
2021/01/23 09:10:14;;;;;;;36.58;24.73;;;8.60;99.90;;;;;;6068367;23;20062;-84
2021/01/23 09:12:40;;;;;;;37.05;23.48;;;8.30;99.90;;;;;;6099685;23;20274;-87
2021/01/23 09:15:07;;;;;;;37.92;22.92;;;8.20;99.90;;;;;;6098766;23;20460;-86
2021/01/23 09:17:33;;;;;;;33.38;24.05;;;8.10;99.90;;;;;;6068368;23;20010;-88
2021/01/23 09:19:59;;;;;;;36.60;22.92;;;8.10;99.90;;;;;;6071022;23;19998;-81
2021/01/23 09:22:25;;;;;;;37.17;23.35;;;8.10;99.90;;;;;;6072447;23;20011;-85
2021/01/23 09:24:51;;;;;;;35.03;23.17;;;8.30;99.90;;;;;;6093022;23;20010;-79
2021/01/23 09:27:21;;;;;;;34.13;23.13;;;8.40;99.90;;;;;;6069348;23;20007;-83
2021/01/23 09:29:57;;;;;;;43.20;24.88;;;8.70;99.90;;;;;;6067411;23;20086;-86
2021/01/23 09:32:23;;;;;;;41.45;24.65;;;8.80;99.90;;;;;;6071118;23;20013;-88
2021/01/23 09:34:54;;;;;;;38.50;24.20;;;8.70;99.90;;;;;;6069097;23;20006;-86
2021/01/23 09:37:23;;;;;;;41.20;24.52;;;8.70;99.90;;;;;;6071132;23;20057;-85
2021/01/23 09:40:15;;;;;;;37.80;25.00;;;8.70;99.90;;;;;;6066566;23;20038;-83
2021/01/23 09:45:24;;;;;;;42.03;26.15;;;8.90;99.90;;;;;;6092998;23;20172;-87
2021/01/23 09:47:50;;;;;;;34.45;21.52;;;8.70;99.90;;;;;;6095624;23;20026;-83
2021/01/23 09:50:21;;;;;;;35.97;22.38;;;8.60;99.90;;;;;;6070800;23;20496;-87
2021/01/23 09:52:59;;;;;;;34.13;23.25;;;8.70;99.90;;;;;;6067318;23;20003;-84
2021/01/23 09:55:34;;;;;;;34.22;21.90;;;8.90;99.90;;;;;;6067310;23;20078;-86
2021/01/23 09:58:06;;;;;;;38.22;23.88;;;9.60;99.90;;;;;;6042747;23;20049;-87
2021/01/23 10:00:58;;;;;;;39.42;26.63;;;9.50;99.90;;;;;;6068440;23;20009;-86
2021/01/23 10:03:24;;;;;;;39.70;24.35;;;9.30;99.90;;;;;;6040412;23;20297;-84
2021/01/23 10:05:55;;;;;;;41.45;24.90;;;9.10;99.90;;;;;;6064094;23;20481;-85
2021/01/23 10:17:23;;;;;;;44.38;25.83;;;9.80;99.90;;;;;;6094080;23;20477;-84
2021/01/23 10:19:50;;;;;;;37.08;23.13;;;9.60;99.90;;;;;;6096370;23;20033;-81
2021/01/23 10:22:16;;;;;;;37.20;23.60;;;9.60;99.90;;;;;;6070494;23;19998;-81
2021/01/23 10:24:42;;;;;;;34.38;20.77;;;9.50;99.90;;;;;;6070296;23;20002;-83
2021/01/23 10:27:08;;;;;;;29.52;19.98;;;9.30;99.90;;;;;;6068628;23;20002;-82
2021/01/23 10:29:34;;;;;;;29.38;19.65;;;9.40;99.90;;;;;;6067179;23;20015;-79
2021/01/23 10:32:01;;;;;;;30.88;19.42;;;9.30;99.90;;;;;;6097265;23;20070;-81
2021/01/23 10:34:29;;;;;;;28.25;19.92;;;9.30;99.90;;;;;;6074137;23;20022;-84
2021/01/23 10:36:58;;;;;;;30.75;18.63;;;9.40;99.90;;;;;;6075412;23;19998;-79
2021/01/23 10:39:24;;;;;;;33.08;20.23;;;9.40;99.90;;;;;;6097539;23;19999;-80
2021/01/23 10:41:50;;;;;;;30.33;19.35;;;9.50;99.90;;;;;;6072130;23;20002;-82
2021/01/23 10:44:17;;;;;;;28.45;18.90;;;9.70;99.90;;;;;;6097449;23;20025;-81
2021/01/23 10:46:45;;;;;;;32.75;18.98;;;9.90;99.90;;;;;;6095094;23;20077;-83
2021/01/23 10:49:11;;;;;;;30.30;19.75;;;10.20;99.90;;;;;;6069297;23;20053;-82
2021/01/23 10:51:37;;;;;;;31.80;19.40;;;10.40;99.90;;;;;;6091672;23;20006;-83
2021/01/23 10:54:02;;;;;;;26.38;18.63;;;10.60;99.90;;;;;;6094145;23;20025;-82
2021/01/23 10:56:39;;;;;;;30.67;19.48;;;10.80;99.90;;;;;;6094868;23;20007;-82
2021/01/23 10:59:04;;;;;;;32.75;21.17;;;10.90;99.90;;;;;;6093639;23;20025;-85
2021/01/23 11:01:31;;;;;;;37.25;22.25;;;10.90;99.90;;;;;;6097112;23;20328;-86
2021/01/23 11:03:57;;;;;;;36.47;22.80;;;11.20;99.90;;;;;;6091665;23;20500;-81
2021/01/23 11:06:24;;;;;;;38.60;25.10;;;11.60;99.90;;;;;;6091857;23;20003;-80
2021/01/23 11:08:53;;;;;;;37.92;25.90;;;11.80;99.90;;;;;;6070417;23;20010;-84
2021/01/23 11:11:19;;;;;;;42.72;25.98;;;11.60;99.90;;;;;;6096045;23;20033;-84
2021/01/23 11:13:44;;;;;;;32.63;23.20;;;11.50;99.90;;;;;;6095509;23;19998;-80
2021/01/23 11:16:10;;;;;;;41.95;22.90;;;12.60;99.90;;;;;;6088774;23;20058;-79
2021/01/23 11:18:42;;;;;;;36.53;23.38;;;13.00;99.90;;;;;;6094170;23;20013;-81
2021/01/23 11:21:08;;;;;;;31.08;20.77;;;12.70;99.90;;;;;;6068522;23;20008;-79
2021/01/23 11:23:44;;;;;;;31.73;21.17;;;12.50;99.90;;;;;;6067036;23;20089;-81
2021/01/23 11:26:10;;;;;;;31.13;20.63;;;12.50;99.90;;;;;;6090216;23;20003;-81
2021/01/23 11:28:36;;;;;;;26.98;17.38;;;12.40;99.90;;;;;;6067427;23;20058;-79
2021/01/23 11:31:03;;;;;;;26.92;16.95;;;12.70;99.90;;;;;;6094410;23;20053;-81
2021/01/23 11:33:28;;;;;;;22.95;14.50;;;12.80;99.90;;;;;;6094393;23;20002;-79
2021/01/23 11:35:54;;;;;;;22.88;14.43;;;12.70;99.90;;;;;;6068360;23;20426;-80
2021/01/23 11:38:39;;;;;;;25.27;15.80;;;12.40;99.90;;;;;;6065339;23;20151;-80
2021/01/23 11:41:05;;;;;;;21.08;14.95;;;12.40;99.90;;;;;;6094354;23;19999;-81
2021/01/23 11:43:31;;;;;;;25.88;15.05;;;12.50;99.90;;;;;;6066478;23;20006;-80
2021/01/23 11:46:00;;;;;;;24.35;15.13;;;12.50;99.90;;;;;;6095752;23;20007;-84
2021/01/23 11:48:26;;;;;;;22.02;14.27;;;12.50;99.90;;;;;;6094291;23;20006;-87
2021/01/23 11:50:52;;;;;;;25.13;15.15;;;12.50;99.90;;;;;;6094043;23;20015;-85
2021/01/23 11:53:18;;;;;;;29.58;19.95;;;12.70;99.90;;;;;;6093974;23;20002;-84
2021/01/23 11:55:45;;;;;;;28.85;18.48;;;12.60;99.90;;;;;;6095439;23;20006;-81
2021/01/23 11:58:11;;;;;;;63.72;38.78;;;12.80;99.90;;;;;;6095349;23;20587;-82
2021/01/23 12:00:37;;;;;;;31.95;20.13;;;13.00;99.90;;;;;;6069589;23;20011;-83
2021/01/23 12:03:04;;;;;;;27.92;17.00;;;12.80;99.90;;;;;;6092073;23;20008;-82
2021/01/23 12:05:33;;;;;;;27.17;16.13;;;12.60;99.90;;;;;;6094164;23;20065;-80
2021/01/23 12:07:59;;;;;;;30.83;17.95;;;12.10;99.90;;;;;;6068457;23;20012;-81
2021/01/23 12:10:26;;;;;;;31.45;17.95;;;11.80;99.90;;;;;;6068846;23;20078;-78
2021/01/23 12:12:51;;;;;;;26.73;18.23;;;11.80;99.90;;;;;;6092904;23;20006;-81
2021/01/23 12:15:36;;;;;;;32.95;18.80;;;11.60;99.90;;;;;;6063800;23;20024;-82
2021/01/23 12:18:22;;;;;;;29.60;18.15;;;11.40;99.90;;;;;;6066717;23;20294;-83
2021/01/23 12:20:56;;;;;;;30.95;18.33;;;11.40;99.90;;;;;;6069464;23;20010;-85
2021/01/23 12:23:22;;;;;;;31.55;17.80;;;11.30;99.90;;;;;;6093693;23;20010;-84
2021/01/23 12:29:38;;;;;;;27.50;17.25;;;11.40;99.90;;;;;;5929881;24;20027;-82
2021/01/23 12:32:38;;;;;;;27.27;18.40;;;11.50;99.90;;;;;;5922949;24;20677;-82
2021/01/23 12:35:22;;;;;;;26.75;16.02;;;11.60;99.90;;;;;;5922548;24;20649;-82
2021/01/23 12:38:14;;;;;;;26.25;16.23;;;11.60;99.90;;;;;;5945039;24;20388;-83
2021/01/23 12:40:39;;;;;;;28.92;16.90;;;11.60;99.90;;;;;;6058264;23;20093;-84
2021/01/23 12:46:40;;;;;;;23.42;16.15;;;11.50;99.90;;;;;;6092982;23;20025;-83
2021/01/23 12:49:06;;;;;;;26.42;14.32;;;11.40;99.90;;;;;;6094521;23;20013;-90
2021/01/23 12:51:47;;;;;;;29.83;16.20;;;11.30;99.90;;;;;;6095853;23;20022;-82
2021/01/23 12:57:12;;;;;;;19.00;13.63;;;11.30;99.90;;;;;;6091615;23;20412;-81
2021/01/23 12:59:38;;;;;;;19.92;13.48;;;11.40;99.90;;;;;;6068776;23;20424;-83
2021/01/23 13:02:05;;;;;;;19.58;11.75;;;11.50;99.90;;;;;;6093424;23;20010;-84
2021/01/23 13:04:31;;;;;;;20.23;13.73;;;11.50;99.90;;;;;;6068543;23;20066;-83
2021/01/23 13:06:57;;;;;;;26.67;14.68;;;11.50;99.90;;;;;;6070135;23;20021;-86
2021/01/23 13:09:25;;;;;;;21.35;14.13;;;11.30;99.90;;;;;;6070892;23;20015;-86
2021/01/23 13:11:51;;;;;;;25.63;15.32;;;11.30;99.90;;;;;;6095063;23;20113;-82